Time;durP1;ratioP1;P1;durP2;ratioP2;P2;SDS_P1;SDS_P2;PMS_P1;PMS_P2;Temp;Humidity;BMP_temperature;BMP_pressure;BME280_temperature;BME280_humidity;BME280_pressure;Samples;Min_cycle;Max_cycle;Signal;HPM_P1;HPM_P2
2023/05/31 00:02:09;;;;;;;11.30;7.10;;;;;;;12.09;100.00;100684.05;105641;1260;60348;-43
2023/05/31 00:04:37;;;;;;;15.40;7.80;;;;;;;12.14;100.00;100687.39;105835;1257;72811;-43
2023/05/31 00:07:05;;;;;;;12.60;6.90;;;;;;;12.19;100.00;100682.45;105828;1254;65299;-43
2023/05/31 00:09:34;;;;;;;9.60;7.90;;;;;;;12.20;100.00;100681.02;105732;1254;72671;-43
2023/05/31 00:12:03;;;;;;;9.30;7.40;;;;;;;12.20;100.00;100684.14;105638;1260;60524;-43
2023/05/31 00:14:31;;;;;;;12.70;7.90;;;;;;;12.21;100.00;100680.84;105700;1254;60511;-43
2023/05/31 00:16:59;;;;;;;13.00;7.50;;;;;;;12.23;100.00;100678.20;105491;1254;257364;-43
2023/05/31 00:21:32;;;;;;;11.00;8.30;;;;;;;12.23;100.00;100684.42;102915;1294;600331;-44
2023/05/31 00:24:00;;;;;;;15.50;8.60;;;;;;;12.23;100.00;100682.70;105068;1269;59922;-44
2023/05/31 00:26:28;;;;;;;20.20;9.10;;;;;;;12.24;100.00;100681.81;105135;1270;59292;-44
2023/05/31 00:28:55;;;;;;;17.40;9.20;;;;;;;12.26;100.00;100681.27;105105;1264;71010;-44
2023/05/31 00:31:23;;;;;;;16.40;8.60;;;;;;;12.27;100.00;100677.78;105056;1269;63949;-44
2023/05/31 00:33:51;;;;;;;11.90;8.50;;;;;;;12.27;100.00;100678.48;104850;1271;71434;-45
2023/05/31 00:36:19;;;;;;;14.20;8.80;;;;;;;12.24;100.00;100679.75;104717;1270;584889;-44
2023/05/31 00:38:47;;;;;;;11.00;9.00;;;;;;;12.23;100.00;100683.04;105238;1261;59196;-44
2023/05/31 00:41:15;;;;;;;23.10;8.50;;;;;;;12.18;100.00;100681.42;105146;1266;72179;-44
2023/05/31 00:43:43;;;;;;;11.80;7.70;;;;;;;12.16;100.00;100679.93;105214;1266;63909;-47
2023/05/31 00:46:17;;;;;;;11.80;8.10;;;;;;;12.10;100.00;100679.35;105145;1263;72653;-44
2023/05/31 00:48:45;;;;;;;11.90;8.80;;;;;;;12.04;100.00;100684.15;105045;1266;61879;-48
2023/05/31 00:51:13;;;;;;;17.60;9.50;;;;;;;11.95;100.00;100684.48;105223;1268;59607;-45
2023/05/31 00:53:41;;;;;;;9.00;8.00;;;;;;;11.88;100.00;100683.77;105272;1266;73054;-45
2023/05/31 00:56:08;;;;;;;14.00;9.40;;;;;;;11.79;100.00;100690.50;105238;1266;63932;-42
2023/05/31 00:58:36;;;;;;;11.80;9.30;;;;;;;11.71;100.00;100688.39;105245;1265;71415;-44
2023/05/31 01:01:04;;;;;;;15.40;10.10;;;;;;;11.66;100.00;100689.02;105261;1261;60727;-42
2023/05/31 01:03:32;;;;;;;15.10;9.80;;;;;;;11.64;100.00;100689.04;105222;1265;59544;-42
2023/05/31 01:06:00;;;;;;;13.80;10.80;;;;;;;11.62;100.00;100686.66;105369;1261;71840;-42
2023/05/31 01:08:28;;;;;;;16.40;10.50;;;;;;;11.63;100.00;100688.02;105324;1263;65589;-43
2023/05/31 01:10:57;;;;;;;16.60;9.40;;;;;;;11.63;100.00;100687.86;105197;1266;71383;-43
2023/05/31 01:13:32;;;;;;;19.60;10.40;;;;;;;11.59;100.00;100688.46;105330;1261;60414;-43
2023/05/31 01:16:20;;;;;;;18.60;11.40;;;;;;;11.56;100.00;100686.45;105292;1266;59619;-43
2023/05/31 01:18:54;;;;;;;19.50;11.40;;;;;;;11.57;100.00;100688.84;105406;1264;72093;-42
2023/05/31 01:21:27;;;;;;;16.30;11.60;;;;;;;11.58;100.00;100685.17;105276;1267;65162;-42
2023/05/31 01:24:19;;;;;;;15.70;10.50;;;;;;;11.59;100.00;100686.20;105238;1261;72662;-43
2023/05/31 01:26:49;;;;;;;16.00;10.10;;;;;;;11.56;100.00;100683.50;105214;1265;61800;-44
2023/05/31 01:29:21;;;;;;;12.60;10.30;;;;;;;11.53;100.00;100687.20;105277;1263;60016;-44
2023/05/31 01:31:51;;;;;;;15.70;11.00;;;;;;;11.48;100.00;100687.95;105245;1261;71098;-44
2023/05/31 01:34:18;;;;;;;13.70;11.30;;;;;;;11.48;100.00;100695.21;105245;1261;64010;-43
2023/05/31 01:36:47;;;;;;;16.20;11.50;;;;;;;11.49;100.00;100691.58;105612;1258;71463;-42
2023/05/31 01:39:14;;;;;;;17.50;12.40;;;;;;;11.50;100.00;100693.29;105659;1257;60455;-42
2023/05/31 01:41:42;;;;;;;18.90;11.90;;;;;;;11.51;100.00;100698.11;105636;1254;59562;-43
2023/05/31 01:44:11;;;;;;;15.80;12.10;;;;;;;11.49;100.00;100696.07;105593;1261;72985;-42
2023/05/31 01:46:38;;;;;;;15.60;11.30;;;;;;;11.46;100.00;100695.24;105567;1256;65314;-42
2023/05/31 01:49:07;;;;;;;14.90;12.00;;;;;;;11.43;100.00;100702.05;105639;1257;71673;-42
2023/05/31 01:51:36;;;;;;;16.50;10.80;;;;;;;11.43;100.00;100700.14;105629;1254;60841;-42
2023/05/31 01:54:04;;;;;;;17.70;12.90;;;;;;;11.38;100.00;100705.60;105641;1261;59680;-42
2023/05/31 01:56:32;;;;;;;16.40;11.90;;;;;;;11.31;100.00;100705.53;105596;1254;72141;-43
2023/05/31 01:59:00;;;;;;;14.50;10.90;;;;;;;11.30;100.00;100704.19;105525;1263;64479;-42
2023/05/31 02:01:27;;;;;;;16.30;12.30;;;;;;;11.25;100.00;100707.20;105594;1257;71510;-42
2023/05/31 02:03:57;;;;;;;21.20;12.60;;;;;;;11.22;100.00;100705.86;105680;1257;61673;-42
2023/05/31 02:06:27;;;;;;;18.50;13.20;;;;;;;11.26;100.00;100705.46;105635;1255;59635;-43
2023/05/31 02:08:54;;;;;;;17.00;10.90;;;;;;;11.30;100.00;100700.72;105659;1254;72519;-43
2023/05/31 02:11:26;;;;;;;22.00;11.50;;;;;;;11.30;100.00;100700.04;105630;1262;65352;-43
2023/05/31 02:13:55;;;;;;;15.50;10.80;;;;;;;11.27;100.00;100702.17;105624;1254;72595;-43
2023/05/31 02:16:23;;;;;;;15.70;9.80;;;;;;;11.24;100.00;100703.08;105597;1254;60787;-43
2023/05/31 02:18:51;;;;;;;13.00;9.90;;;;;;;11.20;100.00;100700.90;105489;1262;60655;-45
2023/05/31 02:21:23;;;;;;;18.20;10.60;;;;;;;11.18;100.00;100705.07;105590;1257;73012;-47
2023/05/31 02:23:50;;;;;;;16.90;10.80;;;;;;;11.19;100.00;100704.36;105825;1256;64671;-45
2023/05/31 02:26:18;;;;;;;12.80;10.40;;;;;;;11.24;100.00;100703.60;105844;1257;71392;-43
2023/05/31 02:28:46;;;;;;;15.00;9.70;;;;;;;11.30;100.00;100702.45;105658;1260;60411;-45
2023/05/31 02:31:13;;;;;;;17.20;9.90;;;;;;;11.35;100.00;100705.80;105674;1259;59722;-45
2023/05/31 02:33:44;;;;;;;13.20;9.90;;;;;;;11.41;100.00;100706.92;105807;1255;71764;-46
2023/05/31 02:36:11;;;;;;;14.20;9.90;;;;;;;11.49;100.00;100706.45;105844;1257;65304;-42
2023/05/31 02:38:39;;;;;;;13.80;9.00;;;;;;;11.56;100.00;100704.74;105671;1257;71668;-44
2023/05/31 02:41:06;;;;;;;11.10;9.80;;;;;;;11.61;100.00;100706.04;105638;1256;61603;-44
2023/05/31 02:43:38;;;;;;;12.60;9.30;;;;;;;11.67;100.00;100708.35;105655;1254;60003;-43
2023/05/31 02:46:05;;;;;;;15.20;9.40;;;;;;;11.72;100.00;100710.16;105805;1254;72974;-42
2023/05/31 02:48:33;;;;;;;11.30;8.70;;;;;;;11.77;100.00;100709.03;105645;1261;63930;-42
2023/05/31 02:51:01;;;;;;;21.50;9.70;;;;;;;11.83;100.00;100712.73;105876;1254;70923;-43
2023/05/31 02:53:55;;;;;;;12.70;8.00;;;;;;;11.89;100.00;100712.27;105509;1259;61629;-42
2023/05/31 02:56:26;;;;;;;17.60;9.00;;;;;;;11.94;100.00;100712.34;105725;1257;59596;-43
2023/05/31 02:59:12;;;;;;;15.60;9.60;;;;;;;12.00;100.00;100715.16;105822;1254;71746;-44
2023/05/31 03:01:49;;;;;;;16.10;9.40;;;;;;;12.06;100.00;100711.61;105672;1257;64030;-44
2023/05/31 03:04:20;;;;;;;12.60;8.60;;;;;;;12.13;100.00;100714.91;105832;1257;72623;-44
2023/05/31 03:06:48;;;;;;;10.30;8.60;;;;;;;12.19;100.00;100716.34;105713;1254;60458;-44
2023/05/31 03:09:16;;;;;;;17.10;8.40;;;;;;;12.24;100.00;100716.59;105676;1252;60018;-44
2023/05/31 03:11:45;;;;;;;18.60;8.90;;;;;;;12.31;100.00;100716.45;105697;1259;74261;-44
2023/05/31 03:14:13;;;;;;;15.20;8.80;;;;;;;12.38;100.00;100713.70;105890;1256;64064;-44
2023/05/31 03:16:44;;;;;;;14.60;8.50;;;;;;;12.43;100.00;100717.23;105926;1256;71981;-44
2023/05/31 03:19:13;;;;;;;14.00;9.00;;;;;;;12.47;100.00;100717.30;105904;1257;59730;-45
2023/05/31 03:21:43;;;;;;;23.70;8.90;;;;;;;12.53;100.00;100716.84;105927;1254;59532;-44
2023/05/31 03:24:10;;;;;;;11.10;8.90;;;;;;;12.58;100.00;100716.37;105921;1257;72977;-44
2023/05/31 03:26:38;;;;;;;12.90;9.30;;;;;;;12.64;100.00;100717.98;105683;1259;65718;-44
2023/05/31 03:29:06;;;;;;;14.30;8.80;;;;;;;12.71;100.00;100715.58;105906;1251;71653;-43
2023/05/31 03:31:34;;;;;;;11.90;8.90;;;;;;;12.77;100.00;100716.31;105929;1251;60720;-44
2023/05/31 03:34:02;;;;;;;13.40;7.90;;;;;;;12.85;100.00;100714.05;105744;1250;60050;-44
2023/05/31 03:36:31;;;;;;;12.70;8.40;;;;;;;12.94;100.00;100714.02;105682;1251;71784;-44
2023/05/31 03:39:01;;;;;;;14.60;8.10;;;;;;;13.04;100.00;100713.08;105615;1251;64724;-43
2023/05/31 03:41:29;;;;;;;9.10;7.80;;;;;;;13.17;100.00;100718.95;105688;1254;71759;-47
2023/05/31 03:43:57;;;;;;;9.50;7.30;;;;;;;13.33;100.00;100723.09;105744;1257;60615;-45
2023/05/31 03:46:25;;;;;;;11.30;7.20;;;;;;;13.54;100.00;100723.61;105706;1251;60067;-44
2023/05/31 03:48:53;;;;;;;13.50;7.90;;;;;;;13.74;100.00;100719.41;105956;1250;73157;-44
2023/05/31 03:51:22;;;;;;;10.30;7.10;;;;;;;13.94;100.00;100722.53;105753;1257;64396;-43
2023/05/31 03:53:50;;;;;;;12.20;8.00;;;;;;;14.15;100.00;100722.30;105858;1251;70939;-44
2023/05/31 03:56:17;;;;;;;13.10;7.60;;;;;;;14.33;100.00;100722.12;105769;1257;59734;-43
2023/05/31 03:58:45;;;;;;;11.50;7.60;;;;;;;14.51;100.00;100732.34;105883;1251;60047;-43
2023/05/31 04:01:13;;;;;;;13.90;7.60;;;;;;;14.63;100.00;100728.32;105719;1258;72991;-43
2023/05/31 04:03:41;;;;;;;11.00;7.50;;;;;;;14.78;100.00;100736.92;105890;1251;65348;-43
2023/05/31 04:06:10;;;;;;;17.30;8.40;;;;;;;15.01;100.00;100740.73;105940;1257;72733;-43
2023/05/31 04:08:39;;;;;;;9.30;7.30;;;;;;;15.26;100.00;100742.17;105916;1254;59708;-43
2023/05/31 04:11:06;;;;;;;13.30;7.80;;;;;;;15.55;100.00;100744.85;105883;1253;59670;-43
2023/05/31 04:13:34;;;;;;;11.20;7.30;;;;;;;15.88;100.00;100747.38;105944;1257;72265;-43
2023/05/31 04:16:02;;;;;;;10.80;6.70;;;;;;;16.18;100.00;100750.11;105904;1250;64241;-43
2023/05/31 04:18:31;;;;;;;8.60;6.90;;;;;;;16.45;100.00;100758.89;105723;1254;72645;-42
2023/05/31 04:20:59;;;;;;;11.20;6.10;;;;;;;16.67;100.00;100769.89;105861;1257;60588;-44
2023/05/31 04:23:27;;;;;;;10.60;6.70;;;;;;;16.88;100.00;100784.06;105753;1254;60006;-43
2023/05/31 04:25:55;;;;;;;8.20;6.00;;;;;;;17.10;100.00;100805.19;105657;1253;73031;-43
2023/05/31 04:28:23;;;;;;;9.60;6.20;;;;;;;17.30;100.00;100829.98;105823;1253;64323;-43
2023/05/31 04:30:51;;;;;;;10.40;5.70;;;;;;;17.48;100.00;100858.21;105916;1254;71391;-44
2023/05/31 04:33:19;;;;;;;11.90;5.80;;;;;;;17.60;100.00;100892.10;105903;1254;60424;-43
2023/05/31 04:35:48;;;;;;;10.30;4.70;;;;;;;17.81;100.00;100943.10;105683;1254;60594;-43
2023/05/31 04:38:16;;;;;;;12.30;5.70;;;;;;;18.09;100.00;101001.02;105720;1253;72837;-44
2023/05/31 04:40:44;;;;;;;8.00;5.40;;;;;;;18.36;100.00;101061.04;105952;1253;64446;-43
2023/05/31 04:43:12;;;;;;;14.70;6.00;;;;;;;18.60;100.00;101124.53;105653;1257;72313;-43
2023/05/31 04:45:40;;;;;;;6.30;4.50;;;;;;;18.83;100.00;101155.72;105680;1257;60405;-43
2023/05/31 04:48:08;;;;;;;9.40;4.80;;;;;;;19.05;100.00;101085.58;105903;1253;60528;-43
2023/05/31 04:50:35;;;;;;;12.30;4.70;;;;;;;19.24;100.00;100902.96;105833;1257;73767;-44
2023/05/31 04:53:04;;;;;;;7.10;4.20;;;;;;;19.35;100.00;100579.35;105664;1254;63918;-43
2023/05/31 04:55:31;;;;;;;8.90;4.30;;;;;;;19.36;100.00;100335.06;105694;1253;72655;-44
2023/05/31 04:58:04;;;;;;;8.00;4.40;;;;;;;19.36;100.00;100242.69;105675;1253;60595;-43
2023/05/31 05:00:32;;;;;;;8.60;4.10;;;;;;;19.51;100.00;100226.95;105733;1254;60445;-44
2023/05/31 05:03:13;;;;;;;6.30;4.20;;;;;;;19.70;100.00;100238.26;105846;1257;72126;-44
2023/05/31 05:05:42;;;;;;;6.30;3.70;;;;;;;19.93;100.00;100251.02;105680;1258;65171;-44
2023/05/31 05:08:10;;;;;;;4.80;3.30;;;;;;;20.20;100.00;100279.89;105672;1254;72751;-43
2023/05/31 05:10:38;;;;;;;5.10;3.70;;;;;;;20.39;100.00;100335.19;105881;1253;60530;-43
2023/05/31 05:13:07;;;;;;;4.60;3.60;;;;;;;20.48;100.00;100358.95;105844;1257;60402;-44
2023/05/31 05:15:35;;;;;;;5.80;3.30;;;;;;;20.49;100.00;100397.13;105853;1257;72922;-43
2023/05/31 05:18:02;;;;;;;3.10;2.90;;;;;;;20.49;100.00;100441.08;105849;1253;65466;-43
2023/05/31 05:20:30;;;;;;;6.00;3.20;;;;;;;20.54;100.00;100472.67;105833;1253;71525;-43
2023/05/31 05:23:02;;;;;;;9.10;3.40;;;;;;;20.63;100.00;100481.09;105711;1254;60458;-44
2023/05/31 05:25:29;;;;;;;3.90;3.10;;;;;;;20.60;100.00;100515.81;105960;1257;60399;-44
2023/05/31 05:27:57;;;;;;;8.50;3.50;;;;;;;20.65;100.00;100530.41;105674;1258;73793;-44
2023/05/31 05:30:25;;;;;;;5.80;3.40;;;;;;;20.68;100.00;100538.45;105669;1253;65350;-44
2023/05/31 05:32:53;;;;;;;7.80;3.10;;;;;;;20.85;100.00;100527.83;105677;1257;71946;-44
2023/05/31 05:35:21;;;;;;;8.20;2.70;;;;;;;21.06;100.00;100535.39;105744;1254;60528;-44
2023/05/31 05:37:49;;;;;;;6.40;2.90;;;;;;;21.20;100.00;100552.23;105858;1257;60338;-44
2023/05/31 05:40:17;;;;;;;7.30;3.30;;;;;;;21.44;100.00;100547.94;105686;1259;73935;-43
2023/05/31 05:42:45;;;;;;;9.60;3.40;;;;;;;21.77;100.00;100544.70;105686;1253;64090;-44
2023/05/31 05:45:12;;;;;;;4.60;3.20;;;;;;;22.01;100.00;100556.30;105638;1258;72626;-44
2023/05/31 05:47:45;;;;;;;5.30;2.90;;;;;;;22.21;100.00;100573.47;105872;1254;60531;-44
2023/05/31 05:50:13;;;;;;;9.00;2.60;;;;;;;22.45;100.00;100589.67;105884;1252;60388;-44
2023/05/31 05:52:40;;;;;;;12.00;3.10;;;;;;;22.62;100.00;100596.09;105855;1254;73796;-44
2023/05/31 05:55:08;;;;;;;5.10;3.10;;;;;;;22.77;100.00;100618.14;105843;1257;65143;-44
2023/05/31 05:57:36;;;;;;;7.00;2.60;;;;;;;23.00;98.39;100610.45;105678;1253;72584;-44
2023/05/31 06:00:30;;;;;;;6.50;2.90;;;;;;;23.27;91.83;100614.48;105661;1256;60575;-43
2023/05/31 06:02:58;;;;;;;8.00;2.60;;;;;;;23.39;86.42;100611.89;105927;1256;60451;-43
2023/05/31 06:05:28;;;;;;;5.30;2.70;;;;;;;23.41;81.64;100618.13;105685;1253;73315;-43
2023/05/31 06:07:56;;;;;;;3.30;2.70;;;;;;;23.33;79.18;100622.30;105894;1253;65384;-44
2023/05/31 06:10:24;;;;;;;4.90;2.40;;;;;;;23.36;78.48;100626.00;105837;1254;71489;-43
2023/05/31 06:12:52;;;;;;;4.00;2.50;;;;;;;23.42;80.53;100640.77;105663;1258;60489;-43
2023/05/31 06:15:20;;;;;;;5.20;2.50;;;;;;;23.43;82.09;100644.69;105646;1255;60339;-44
2023/05/31 06:17:48;;;;;;;4.80;2.60;;;;;;;23.54;78.35;100618.94;105653;1254;72628;-44
2023/05/31 06:20:16;;;;;;;4.40;2.80;;;;;;;23.51;71.14;100592.55;105707;1252;64591;-44
2023/05/31 06:22:44;;;;;;;85.90;6.50;;;;;;;23.48;71.05;100616.20;105918;1254;71707;-44
2023/05/31 06:25:16;;;;;;;5.20;2.70;;;;;;;23.51;70.48;100620.01;105697;1259;60418;-44
2023/05/31 06:27:45;;;;;;;4.00;2.80;;;;;;;23.48;68.52;100604.91;105732;1254;60623;-44
2023/05/31 06:30:14;;;;;;;3.00;2.30;;;;;;;23.37;66.62;100595.13;105921;1256;72886;-43
2023/05/31 06:32:46;;;;;;;5.30;2.50;;;;;;;23.22;66.71;100619.20;105918;1251;65273;-43
2023/05/31 06:35:18;;;;;;;4.00;2.60;;;;;;;23.12;67.90;100637.30;105877;1254;71382;-45
2023/05/31 06:37:47;;;;;;;6.50;2.70;;;;;;;23.19;66.79;100616.39;105687;1253;60432;-45
2023/05/31 06:40:14;;;;;;;2.90;2.40;;;;;;;23.22;66.71;100617.90;105865;1253;60579;-46
2023/05/31 06:42:43;;;;;;;4.20;2.30;;;;;;;23.15;65.31;100596.42;105855;1257;72676;-48
2023/05/31 06:45:29;;;;;;;4.00;2.60;;;;;;;23.14;65.02;100613.90;105945;1256;64968;-47
2023/05/31 06:48:20;;;;;;;3.40;2.30;;;;;;;23.36;63.32;100571.45;105868;1257;72876;-46
2023/05/31 06:51:11;;;;;;;8.10;2.30;;;;;;;23.54;60.93;100531.41;105802;1257;60521;-44
2023/05/31 06:54:00;;;;;;;17.10;2.60;;;;;;;23.51;59.70;100530.91;105871;1251;60635;-45
2023/05/31 06:56:29;;;;;;;3.00;2.10;;;;;;;23.52;58.54;100508.48;105700;1257;73028;-46
2023/05/31 06:58:57;;;;;;;8.40;2.10;;;;;;;23.65;56.82;100461.73;105955;1252;63934;-47
2023/05/31 07:01:25;;;;;;;3.30;2.00;;;;;;;23.75;57.13;100503.00;105934;1256;71274;-43
2023/05/31 07:03:52;;;;;;;5.90;2.00;;;;;;;23.88;55.91;100462.55;105948;1252;60470;-44
2023/05/31 07:06:20;;;;;;;4.40;2.20;;;;;;;23.92;56.22;100496.05;105708;1252;60993;-43
2023/05/31 07:08:50;;;;;;;3.10;1.90;;;;;;;24.02;55.00;100442.69;105951;1253;73876;-43
2023/05/31 07:11:47;;;;;;;10.20;2.40;;;;;;;24.11;54.72;100458.22;105604;1253;63938;-44
2023/05/31 07:14:15;;;;;;;6.30;2.00;;;;;;;24.28;54.02;100428.05;105947;1253;71619;-44
2023/05/31 07:16:43;;;;;;;6.10;1.90;;;;;;;24.46;53.61;100415.34;105931;1253;60445;-44
2023/05/31 07:19:11;;;;;;;2.20;2.00;;;;;;;24.60;52.08;100329.27;105919;1257;60425;-44
2023/05/31 07:21:39;;;;;;;8.10;2.10;;;;;;;24.77;52.07;100360.38;105718;1258;72247;-44
2023/05/31 07:24:07;;;;;;;3.30;2.60;;;;;;;25.02;51.70;100337.77;105935;1251;65165;-44
2023/05/31 07:26:34;;;;;;;8.50;2.10;;;;;;;25.19;51.49;100348.77;105884;1251;72742;-44
2023/05/31 07:29:02;;;;;;;7.40;2.00;;;;;;;25.41;50.01;100236.62;105867;1250;60475;-45
2023/05/31 07:31:30;;;;;;;6.60;2.30;;;;;;;25.61;48.77;100144.02;105880;1257;60425;-44
2023/05/31 07:33:57;;;;;;;4.20;1.90;;;;;;;25.69;48.48;100142.23;105881;1250;73740;-44
2023/05/31 07:36:25;;;;;;;2.50;1.60;;;;;;;25.72;48.28;100138.85;105881;1251;64090;-44
2023/05/31 07:38:53;;;;;;;4.30;1.90;;;;;;;25.86;47.84;100116.17;105834;1251;72648;-44
2023/05/31 07:41:20;;;;;;;6.00;2.00;;;;;;;25.86;47.42;100110.34;105891;1252;60450;-44
2023/05/31 07:43:48;;;;;;;8.60;2.00;;;;;;;25.61;47.55;100163.61;105954;1250;60319;-44
2023/05/31 07:46:16;;;;;;;4.60;2.10;;;;;;;25.44;47.51;100161.99;105874;1250;72685;-44
2023/05/31 07:48:43;;;;;;;2.00;1.70;;;;;;;25.44;47.17;100138.69;105945;1250;65272;-44
2023/05/31 07:51:11;;;;;;;4.80;2.20;;;;;;;25.27;47.66;100195.21;105909;1257;71372;-43
2023/05/31 07:53:40;;;;;;;5.90;2.30;;;;;;;25.05;48.33;100292.20;105931;1253;60524;-44
2023/05/31 07:56:08;;;;;;;3.90;1.90;;;;;;;25.11;48.20;100284.66;105875;1253;60421;-44
2023/05/31 07:58:36;;;;;;;5.10;2.00;;;;;;;25.03;47.41;100215.27;105840;1251;73791;-44
2023/05/31 08:01:04;;;;;;;9.50;2.10;;;;;;;24.91;48.38;100308.30;105925;1251;64039;-44
2023/05/31 08:03:32;;;;;;;8.50;2.90;;;;;;;24.85;48.91;100387.66;105940;1253;71452;-44
2023/05/31 08:06:00;;;;;;;12.50;4.20;;;;;;;24.68;49.68;100446.68;105938;1254;60460;-44
2023/05/31 08:08:28;;;;;;;13.60;3.00;;;;;;;24.42;50.74;100550.38;105870;1257;60394;-44
2023/05/31 08:10:55;;;;;;;21.10;5.40;;;;;;;24.22;49.21;100411.58;105954;1250;73801;-44
2023/05/31 08:13:24;;;;;;;16.90;7.90;;;;;;;24.03;49.62;100454.09;105865;1250;64465;-44
2023/05/31 08:15:52;;;;;;;13.80;7.00;;;;;;;23.96;50.08;100490.65;105919;1257;72002;-44
2023/05/31 08:18:20;;;;;;;11.20;4.50;;;;;;;23.87;48.54;100349.36;105936;1253;60311;-44
2023/05/31 08:20:47;;;;;;;8.90;2.40;;;;;;;23.95;48.32;100335.17;105883;1256;60429;-44
2023/05/31 08:23:19;;;;;;;7.50;2.80;;;;;;;24.35;47.51;100256.15;105946;1250;72622;-44
2023/05/31 08:25:47;;;;;;;6.00;2.00;;;;;;;24.94;45.93;100084.45;105941;1255;63991;-44
2023/05/31 08:28:14;;;;;;;3.00;2.10;;;;;;;25.52;43.54;99828.61;105936;1253;71455;-44
2023/05/31 08:30:42;;;;;;;2.90;1.70;;;;;;;25.86;41.77;99590.38;105923;1251;60412;-44
2023/05/31 08:33:12;;;;;;;2.00;1.70;;;;;;;25.81;40.51;99464.36;105883;1257;60420;-44
2023/05/31 08:35:40;;;;;;;2.40;2.00;;;;;;;25.51;40.76;99521.24;105976;1250;72623;-43
2023/05/31 08:38:08;;;;;;;17.30;2.40;;;;;;;25.22;41.15;99609.24;105951;1256;64961;-44
2023/05/31 08:40:36;;;;;;;3.80;2.20;;;;;;;25.06;41.15;99618.01;105893;1257;71434;-44
2023/05/31 08:43:15;;;;;;;8.80;2.70;;;;;;;25.27;40.19;99534.11;105725;1259;60521;-44
2023/05/31 08:45:43;;;;;;;9.70;2.20;;;;;;;25.70;39.41;99421.23;105982;1251;60535;-45
2023/05/31 08:48:26;;;;;;;6.00;1.90;;;;;;;26.09;39.19;99375.90;105894;1251;72675;-44
2023/05/31 08:50:54;;;;;;;3.00;1.90;;;;;;;26.33;38.31;99263.73;105888;1257;63905;-45
2023/05/31 08:53:25;;;;;;;3.40;2.00;;;;;;;26.35;38.81;99340.38;105700;1251;72668;-45
2023/05/31 08:55:53;;;;;;;7.90;1.90;;;;;;;26.20;38.34;99261.81;105945;1251;60401;-45
2023/05/31 08:58:22;;;;;;;7.40;2.30;;;;;;;26.04;38.19;99291.20;105889;1257;60352;-45
2023/05/31 09:00:50;;;;;;;8.60;1.90;;;;;;;25.78;38.80;99365.37;105893;1257;73813;-45
2023/05/31 09:03:17;;;;;;;4.00;1.90;;;;;;;25.59;38.40;99355.22;105906;1250;65291;-44
2023/05/31 09:05:45;;;;;;;9.20;2.20;;;;;;;25.66;37.58;99274.39;105686;1258;71384;-44
2023/05/31 09:08:13;;;;;;;9.00;2.10;;;;;;;25.88;38.02;99300.58;105948;1254;60523;-45
2023/05/31 09:10:41;;;;;;;14.60;2.60;;;;;;;26.14;38.33;99354.04;105953;1256;60518;-45
2023/05/31 09:13:08;;;;;;;2.20;1.90;;;;;;;26.29;38.36;99347.95;105941;1256;73780;-45
2023/05/31 09:15:36;;;;;;;8.70;1.90;;;;;;;26.28;38.07;99308.83;105699;1250;64528;-44
2023/05/31 09:18:15;;;;;;;3.20;1.70;;;;;;;26.35;39.61;99493.91;105908;1253;71882;-45
2023/05/31 09:20:43;;;;;;;2.30;2.00;;;;;;;26.55;38.05;99344.89;105909;1250;60441;-44
2023/05/31 09:23:18;;;;;;;9.70;2.00;;;;;;;26.53;38.16;99363.52;105959;1255;60416;-44
2023/05/31 09:25:46;;;;;;;7.40;2.40;;;;;;;26.64;38.26;99387.80;105758;1250;72550;-44
2023/05/31 09:28:15;;;;;;;3.20;2.10;;;;;;;26.79;36.28;99134.52;105694;1253;64435;-45
2023/05/31 09:30:42;;;;;;;4.10;1.80;;;;;;;26.89;36.54;99151.61;105831;1257;72703;-46
2023/05/31 09:33:10;;;;;;;5.60;1.70;;;;;;;27.10;36.98;99193.09;105840;1254;60639;-45
2023/05/31 09:35:38;;;;;;;3.40;1.70;;;;;;;27.44;35.85;99060.67;105916;1256;60450;-45
2023/05/31 09:38:06;;;;;;;2.10;1.80;;;;;;;27.79;35.43;98989.08;105707;1259;72112;-44
2023/05/31 09:40:34;;;;;;;6.30;2.10;;;;;;;28.18;34.75;98892.43;105960;1256;64025;-44
2023/05/31 09:43:01;;;;;;;6.00;1.90;;;;;;;28.30;33.62;98701.15;105856;1253;72683;-44
2023/05/31 09:45:29;;;;;;;7.80;2.60;;;;;;;28.25;33.18;98640.23;105845;1256;60351;-44
2023/05/31 09:47:57;;;;;;;6.70;2.00;;;;;;;28.19;33.13;98595.47;105927;1257;60490;-45
2023/05/31 09:50:25;;;;;;;11.70;2.90;;;;;;;28.19;33.49;98607.83;105731;1250;72655;-44
2023/05/31 09:52:59;;;;;;;7.70;2.10;;;;;;;28.26;33.33;98630.85;105951;1250;64485;-44
2023/05/31 09:55:40;;;;;;;6.90;2.40;;;;;;;28.44;33.13;98593.75;105860;1251;72606;-45
2023/05/31 09:58:08;;;;;;;10.80;2.20;;;;;;;28.43;33.23;98583.64;105741;1256;60473;-45
2023/05/31 10:00:44;;;;;;;3.00;2.00;;;;;;;28.35;32.96;98614.73;105760;1258;60431;-44
2023/05/31 10:03:11;;;;;;;6.00;2.40;;;;;;;28.03;32.53;98532.47;105864;1251;73879;-45
2023/05/31 10:05:39;;;;;;;4.90;2.20;;;;;;;27.53;33.48;98663.65;105847;1256;65180;-44
2023/05/31 10:08:07;;;;;;;4.30;2.20;;;;;;;27.05;33.86;98759.06;105888;1253;71453;-44
2023/05/31 10:10:35;;;;;;;6.70;1.80;;;;;;;26.62;34.43;98848.67;105699;1258;60451;-44
2023/05/31 10:13:02;;;;;;;6.40;2.10;;;;;;;26.16;35.51;98997.60;105900;1250;60508;-44
2023/05/31 10:15:31;;;;;;;5.60;2.00;;;;;;;25.86;36.20;99100.47;105854;1250;72628;-45
2023/05/31 10:18:00;;;;;;;8.10;2.00;;;;;;;25.75;37.19;99232.48;105942;1251;63921;-45
2023/05/31 10:20:32;;;;;;;5.10;2.10;;;;;;;25.77;35.81;99149.23;105896;1257;72644;-45
2023/05/31 10:23:01;;;;;;;2.00;1.90;;;;;;;25.87;35.69;99114.78;105933;1253;60404;-46
2023/05/31 10:25:42;;;;;;;5.10;2.20;;;;;;;26.33;35.22;99066.41;105966;1255;60479;-45
2023/05/31 10:28:12;;;;;;;5.00;2.00;;;;;;;26.91;34.43;98974.80;105742;1250;73300;-44
2023/05/31 10:30:40;;;;;;;6.80;2.20;;;;;;;26.94;34.13;98917.77;105919;1251;63925;-44
2023/05/31 10:33:12;;;;;;;4.80;2.10;;;;;;;26.65;34.33;98934.12;105887;1257;71118;-44
2023/05/31 10:35:40;;;;;;;5.70;2.00;;;;;;;26.24;34.60;98967.66;105908;1253;60620;-44
2023/05/31 10:38:07;;;;;;;6.80;2.20;;;;;;;25.85;35.21;99029.21;105923;1251;60335;-44
2023/05/31 10:40:47;;;;;;;3.40;1.80;;;;;;;25.58;36.19;99157.06;105859;1250;72564;-45
2023/05/31 10:43:32;;;;;;;10.20;2.40;;;;;;;25.60;36.23;99216.52;105979;1250;65141;-45
2023/05/31 10:46:01;;;;;;;6.20;2.20;;;;;;;26.03;35.66;99163.50;105909;1252;71528;-46
2023/05/31 10:48:45;;;;;;;2.10;1.90;;;;;;;26.55;35.72;99135.04;105958;1256;60534;-45
2023/05/31 10:51:13;;;;;;;6.50;1.90;;;;;;;27.16;34.57;99020.52;105778;1250;60339;-45
2023/05/31 10:53:43;;;;;;;7.30;2.20;;;;;;;27.60;32.97;98800.29;105703;1251;72802;-45
2023/05/31 10:56:11;;;;;;;3.40;2.00;;;;;;;27.82;33.90;98849.83;105736;1250;65337;-45
2023/05/31 10:58:41;;;;;;;7.20;2.50;;;;;;;28.22;33.09;98764.83;105869;1251;72189;-49
2023/05/31 11:01:13;;;;;;;8.00;1.90;;;;;;;28.36;32.79;98698.23;105862;1250;60885;-48
2023/05/31 11:03:49;;;;;;;8.40;2.70;;;;;;;28.34;32.11;98590.05;105968;1251;60420;-46
2023/05/31 11:06:32;;;;;;;4.50;2.00;;;;;;;27.88;31.60;98542.81;105896;1250;73893;-46
2023/05/31 11:09:10;;;;;;;5.00;1.90;;;;;;;27.32;32.05;98607.02;105960;1257;65150;-46
2023/05/31 11:11:42;;;;;;;5.80;2.30;;;;;;;26.86;33.25;98735.73;105924;1256;72607;-50
2023/05/31 11:14:26;;;;;;;2.50;1.80;;;;;;;26.56;33.71;98819.05;105918;1257;60579;-46
2023/05/31 11:17:04;;;;;;;10.10;2.00;;;;;;;26.29;34.36;98896.42;105971;1250;60431;-46
2023/05/31 11:19:35;;;;;;;3.90;1.80;;;;;;;26.30;34.65;98953.61;105905;1250;72685;-45
2023/05/31 11:22:07;;;;;;;2.40;1.80;;;;;;;26.65;34.71;98969.42;105980;1256;63905;-44
2023/05/31 11:24:55;;;;;;;9.40;2.40;;;;;;;26.99;34.02;98894.55;105946;1256;72636;-45
2023/05/31 11:27:37;;;;;;;7.20;1.90;;;;;;;27.10;32.81;98768.05;105932;1254;60450;-44